sensor_id;sensor_type;location;lat;lon;timestamp;temperature;humidity
38784;DHT22;24531;45.502;12.238;2023-03-23T00:02:30;15.90;84.50
38784;DHT22;24531;45.502;12.238;2023-03-23T00:04:58;15.90;84.60
38784;DHT22;24531;45.502;12.238;2023-03-23T00:07:26;15.90;84.60
38784;DHT22;24531;45.502;12.238;2023-03-23T00:09:54;15.80;84.50
38784;DHT22;24531;45.502;12.238;2023-03-23T00:12:21;15.80;84.50
38784;DHT22;24531;45.502;12.238;2023-03-23T00:15:07;15.80;84.70
38784;DHT22;24531;45.502;12.238;2023-03-23T00:17:34;15.80;84.60
38784;DHT22;24531;45.502;12.238;2023-03-23T00:20:00;15.70;84.70
38784;DHT22;24531;45.502;12.238;2023-03-23T00:22:27;15.70;85.00
38784;DHT22;24531;45.502;12.238;2023-03-23T00:24:54;15.60;85.10
38784;DHT22;24531;45.502;12.238;2023-03-23T00:27:20;15.70;85.10
38784;DHT22;24531;45.502;12.238;2023-03-23T00:29:50;15.70;85.10
38784;DHT22;24531;45.502;12.238;2023-03-23T00:32:23;15.70;85.00
38784;DHT22;24531;45.502;12.238;2023-03-23T00:34:56;15.70;85.10
38784;DHT22;24531;45.502;12.238;2023-03-23T00:37:24;15.70;85.00
38784;DHT22;24531;45.502;12.238;2023-03-23T00:39:50;15.70;85.30
38784;DHT22;24531;45.502;12.238;2023-03-23T00:42:17;15.60;85.20
38784;DHT22;24531;45.502;12.238;2023-03-23T00:44:43;15.60;85.40
38784;DHT22;24531;45.502;12.238;2023-03-23T00:47:09;15.60;85.30
38784;DHT22;24531;45.502;12.238;2023-03-23T00:49:35;15.60;85.50
38784;DHT22;24531;45.502;12.238;2023-03-23T00:52:03;15.70;85.50
38784;DHT22;24531;45.502;12.238;2023-03-23T00:54:28;15.60;85.60
38784;DHT22;24531;45.502;12.238;2023-03-23T00:56:54;15.60;85.80
38784;DHT22;24531;45.502;12.238;2023-03-23T00:59:21;15.50;85.60
38784;DHT22;24531;45.502;12.238;2023-03-23T01:01:47;15.60;85.80
38784;DHT22;24531;45.502;12.238;2023-03-23T01:04:13;15.60;85.90
38784;DHT22;24531;45.502;12.238;2023-03-23T01:06:41;15.60;85.80
38784;DHT22;24531;45.502;12.238;2023-03-23T01:09:13;15.50;85.80
38784;DHT22;24531;45.502;12.238;2023-03-23T01:11:47;15.50;85.90
38784;DHT22;24531;45.502;12.238;2023-03-23T01:14:14;15.50;86.00
38784;DHT22;24531;45.502;12.238;2023-03-23T01:16:41;15.50;86.20
38784;DHT22;24531;45.502;12.238;2023-03-23T01:19:07;15.50;86.30
38784;DHT22;24531;45.502;12.238;2023-03-23T01:21:32;15.50;86.30
38784;DHT22;24531;45.502;12.238;2023-03-23T01:23:58;15.50;86.30
38784;DHT22;24531;45.502;12.238;2023-03-23T01:26:25;15.50;86.30
38784;DHT22;24531;45.502;12.238;2023-03-23T01:28:52;15.40;86.30
38784;DHT22;24531;45.502;12.238;2023-03-23T01:31:21;15.40;87.00
38784;DHT22;24531;45.502;12.238;2023-03-23T01:33:47;15.50;86.40
38784;DHT22;24531;45.502;12.238;2023-03-23T01:36:16;15.40;86.50
38784;DHT22;24531;45.502;12.238;2023-03-23T01:38:48;15.40;86.60
38784;DHT22;24531;45.502;12.238;2023-03-23T01:41:14;15.40;86.60
38784;DHT22;24531;45.502;12.238;2023-03-23T01:44:06;15.40;86.70
38784;DHT22;24531;45.502;12.238;2023-03-23T01:46:35;15.40;86.70
38784;DHT22;24531;45.502;12.238;2023-03-23T01:51:37;15.30;87.30
38784;DHT22;24531;45.502;12.238;2023-03-23T01:54:07;15.30;86.80
38784;DHT22;24531;45.502;12.238;2023-03-23T01:56:42;11.70;84.60
38784;DHT22;24531;45.502;12.238;2023-03-23T01:59:11;15.30;86.90
38784;DHT22;24531;45.502;12.238;2023-03-23T02:01:39;15.20;86.90
38784;DHT22;24531;45.502;12.238;2023-03-23T02:04:11;15.20;86.90
38784;DHT22;24531;45.502;12.238;2023-03-23T02:06:37;15.20;87.00
38784;DHT22;24531;45.502;12.238;2023-03-23T02:09:03;15.20;87.00
38784;DHT22;24531;45.502;12.238;2023-03-23T02:11:31;15.20;87.00
38784;DHT22;24531;45.502;12.238;2023-03-23T02:13:57;15.20;87.00
38784;DHT22;24531;45.502;12.238;2023-03-23T02:25:09;15.00;87.30
38784;DHT22;24531;45.502;12.238;2023-03-23T02:36:10;14.90;87.10
38784;DHT22;24531;45.502;12.238;2023-03-23T02:38:42;14.80;87.20
38784;DHT22;24531;45.502;12.238;2023-03-23T02:41:09;14.80;87.30
38784;DHT22;24531;45.502;12.238;2023-03-23T02:43:42;14.80;87.30
38784;DHT22;24531;45.502;12.238;2023-03-23T02:46:10;14.80;87.40
38784;DHT22;24531;45.502;12.238;2023-03-23T02:48:37;14.80;87.40
38784;DHT22;24531;45.502;12.238;2023-03-23T02:51:04;14.80;87.40
38784;DHT22;24531;45.502;12.238;2023-03-23T02:53:34;14.80;87.50
38784;DHT22;24531;45.502;12.238;2023-03-23T02:56:02;14.70;87.60
38784;DHT22;24531;45.502;12.238;2023-03-23T02:58:30;14.70;87.60
38784;DHT22;24531;45.502;12.238;2023-03-23T03:00:56;14.70;87.80
38784;DHT22;24531;45.502;12.238;2023-03-23T03:03:27;17.30;89.50
38784;DHT22;24531;45.502;12.238;2023-03-23T03:09:05;14.60;87.90
38784;DHT22;24531;45.502;12.238;2023-03-23T03:11:33;14.60;88.10
38784;DHT22;24531;45.502;12.238;2023-03-23T03:14:05;14.60;88.00
38784;DHT22;24531;45.502;12.238;2023-03-23T03:21:52;14.40;88.00
38784;DHT22;24531;45.502;12.238;2023-03-23T03:24:19;14.40;88.20
38784;DHT22;24531;45.502;12.238;2023-03-23T03:26:49;14.30;88.20
38784;DHT22;24531;45.502;12.238;2023-03-23T03:29:18;14.40;88.20
38784;DHT22;24531;45.502;12.238;2023-03-23T03:31:47;14.40;88.30
38784;DHT22;24531;45.502;12.238;2023-03-23T03:34:15;14.40;88.30
38784;DHT22;24531;45.502;12.238;2023-03-23T03:36:44;11.40;86.40
38784;DHT22;24531;45.502;12.238;2023-03-23T03:39:12;14.40;88.10
38784;DHT22;24531;45.502;12.238;2023-03-23T03:41:38;14.40;88.00
38784;DHT22;24531;45.502;12.238;2023-03-23T03:44:05;14.40;88.30
38784;DHT22;24531;45.502;12.238;2023-03-23T03:46:32;14.30;88.40
38784;DHT22;24531;45.502;12.238;2023-03-23T03:49:00;14.30;88.40
38784;DHT22;24531;45.502;12.238;2023-03-23T03:51:28;14.30;88.40
38784;DHT22;24531;45.502;12.238;2023-03-23T03:53:54;14.40;88.60
38784;DHT22;24531;45.502;12.238;2023-03-23T03:56:21;14.40;88.60
38784;DHT22;24531;45.502;12.238;2023-03-23T03:58:48;14.40;88.60
38784;DHT22;24531;45.502;12.238;2023-03-23T04:01:15;14.40;88.60
38784;DHT22;24531;45.502;12.238;2023-03-23T04:03:41;14.40;88.60
38784;DHT22;24531;45.502;12.238;2023-03-23T04:06:08;14.40;88.60
38784;DHT22;24531;45.502;12.238;2023-03-23T04:08:35;14.30;88.40
38784;DHT22;24531;45.502;12.238;2023-03-23T04:11:03;14.30;88.40
38784;DHT22;24531;45.502;12.238;2023-03-23T04:13:30;14.30;88.50
38784;DHT22;24531;45.502;12.238;2023-03-23T04:15:55;14.30;88.70
38784;DHT22;24531;45.502;12.238;2023-03-23T04:18:22;14.20;88.90
38784;DHT22;24531;45.502;12.238;2023-03-23T04:20:49;14.30;89.10
38784;DHT22;24531;45.502;12.238;2023-03-23T04:23:16;14.20;89.00
38784;DHT22;24531;45.502;12.238;2023-03-23T04:25:47;14.20;89.30
38784;DHT22;24531;45.502;12.238;2023-03-23T04:28:14;14.20;89.40
38784;DHT22;24531;45.502;12.238;2023-03-23T04:30:42;14.20;89.40
38784;DHT22;24531;45.502;12.238;2023-03-23T04:33:09;14.20;89.40
38784;DHT22;24531;45.502;12.238;2023-03-23T04:35:40;14.20;89.30
38784;DHT22;24531;45.502;12.238;2023-03-23T04:38:07;14.20;89.30
38784;DHT22;24531;45.502;12.238;2023-03-23T04:40:38;14.10;89.10
38784;DHT22;24531;45.502;12.238;2023-03-23T04:43:04;14.10;89.20
38784;DHT22;24531;45.502;12.238;2023-03-23T04:45:32;14.00;89.30
38784;DHT22;24531;45.502;12.238;2023-03-23T04:47:57;14.00;89.50
38784;DHT22;24531;45.502;12.238;2023-03-23T04:50:27;13.90;90.10
38784;DHT22;24531;45.502;12.238;2023-03-23T04:52:56;13.90;89.70
38784;DHT22;24531;45.502;12.238;2023-03-23T04:55:24;13.90;89.60
38784;DHT22;24531;45.502;12.238;2023-03-23T04:57:50;13.90;90.20
38784;DHT22;24531;45.502;12.238;2023-03-23T05:00:17;13.80;89.60
38784;DHT22;24531;45.502;12.238;2023-03-23T05:02:46;10.60;87.90
38784;DHT22;24531;45.502;12.238;2023-03-23T05:05:13;13.80;90.00
38784;DHT22;24531;45.502;12.238;2023-03-23T05:07:40;13.80;90.30
38784;DHT22;24531;45.502;12.238;2023-03-23T05:10:07;13.80;90.00
38784;DHT22;24531;45.502;12.238;2023-03-23T05:12:33;13.80;90.00
38784;DHT22;24531;45.502;12.238;2023-03-23T05:14:59;13.80;90.00
38784;DHT22;24531;45.502;12.238;2023-03-23T05:17:26;13.80;90.00
38784;DHT22;24531;45.502;12.238;2023-03-23T05:19:52;13.80;90.00
38784;DHT22;24531;45.502;12.238;2023-03-23T05:22:18;13.80;90.00
38784;DHT22;24531;45.502;12.238;2023-03-23T05:24:47;13.80;89.90
38784;DHT22;24531;45.502;12.238;2023-03-23T05:27:13;13.80;90.00
38784;DHT22;24531;45.502;12.238;2023-03-23T05:29:40;13.80;90.00
38784;DHT22;24531;45.502;12.238;2023-03-23T05:32:07;13.80;90.40
38784;DHT22;24531;45.502;12.238;2023-03-23T05:34:34;13.80;90.10
38784;DHT22;24531;45.502;12.238;2023-03-23T05:37:00;13.80;90.20
38784;DHT22;24531;45.502;12.238;2023-03-23T05:39:27;13.80;90.30
38784;DHT22;24531;45.502;12.238;2023-03-23T05:41:54;13.80;90.30
38784;DHT22;24531;45.502;12.238;2023-03-23T05:44:20;13.80;90.40
38784;DHT22;24531;45.502;12.238;2023-03-23T05:46:46;13.90;90.40
38784;DHT22;24531;45.502;12.238;2023-03-23T05:49:12;14.00;90.40
38784;DHT22;24531;45.502;12.238;2023-03-23T05:51:39;13.90;90.50
38784;DHT22;24531;45.502;12.238;2023-03-23T05:54:05;14.00;90.50
38784;DHT22;24531;45.502;12.238;2023-03-23T05:56:31;14.10;90.40
38784;DHT22;24531;45.502;12.238;2023-03-23T05:58:57;14.10;90.40
38784;DHT22;24531;45.502;12.238;2023-03-23T06:01:24;14.10;90.40
38784;DHT22;24531;45.502;12.238;2023-03-23T06:03:50;14.20;90.50
38784;DHT22;24531;45.502;12.238;2023-03-23T06:06:22;14.20;90.40
38784;DHT22;24531;45.502;12.238;2023-03-23T06:08:48;14.30;90.40
38784;DHT22;24531;45.502;12.238;2023-03-23T06:11:15;14.40;90.50
38784;DHT22;24531;45.502;12.238;2023-03-23T06:13:41;14.40;90.40
38784;DHT22;24531;45.502;12.238;2023-03-23T06:16:07;14.40;90.40
38784;DHT22;24531;45.502;12.238;2023-03-23T06:18:34;14.50;90.40
38784;DHT22;24531;45.502;12.238;2023-03-23T06:21:02;14.50;90.40
38784;DHT22;24531;45.502;12.238;2023-03-23T06:23:28;14.50;90.50
38784;DHT22;24531;45.502;12.238;2023-03-23T06:26:02;14.60;90.50
38784;DHT22;24531;45.502;12.238;2023-03-23T06:28:29;14.60;90.50
38784;DHT22;24531;45.502;12.238;2023-03-23T06:30:54;14.60;90.50
38784;DHT22;24531;45.502;12.238;2023-03-23T06:33:21;14.60;90.40
38784;DHT22;24531;45.502;12.238;2023-03-23T06:35:47;14.60;90.40
38784;DHT22;24531;45.502;12.238;2023-03-23T06:38:14;14.60;90.40
38784;DHT22;24531;45.502;12.238;2023-03-23T06:40:40;14.70;90.50
38784;DHT22;24531;45.502;12.238;2023-03-23T06:43:07;14.70;90.50
38784;DHT22;24531;45.502;12.238;2023-03-23T06:45:32;14.80;90.60
38784;DHT22;24531;45.502;12.238;2023-03-23T06:47:58;14.80;90.90
38784;DHT22;24531;45.502;12.238;2023-03-23T06:50:24;14.90;90.50
38784;DHT22;24531;45.502;12.238;2023-03-23T06:52:50;15.00;90.50
38784;DHT22;24531;45.502;12.238;2023-03-23T06:55:16;15.10;90.60
38784;DHT22;24531;45.502;12.238;2023-03-23T06:57:43;15.10;90.60
38784;DHT22;24531;45.502;12.238;2023-03-23T07:00:10;15.30;90.60
38784;DHT22;24531;45.502;12.238;2023-03-23T07:02:41;15.40;90.60
38784;DHT22;24531;45.502;12.238;2023-03-23T07:05:11;15.70;90.60
38784;DHT22;24531;45.502;12.238;2023-03-23T07:07:38;15.90;90.50
38784;DHT22;24531;45.502;12.238;2023-03-23T07:10:06;16.00;90.40
38784;DHT22;24531;45.502;12.238;2023-03-23T07:12:32;16.20;90.30
38784;DHT22;24531;45.502;12.238;2023-03-23T07:14:58;16.30;90.30
38784;DHT22;24531;45.502;12.238;2023-03-23T07:17:24;16.50;90.20
38784;DHT22;24531;45.502;12.238;2023-03-23T07:19:50;16.70;90.20
38784;DHT22;24531;45.502;12.238;2023-03-23T07:22:16;16.80;90.20
38784;DHT22;24531;45.502;12.238;2023-03-23T07:24:42;17.00;90.00
38784;DHT22;24531;45.502;12.238;2023-03-23T07:27:08;17.10;90.10
38784;DHT22;24531;45.502;12.238;2023-03-23T07:29:34;17.30;90.10
38784;DHT22;24531;45.502;12.238;2023-03-23T07:32:01;16.70;89.40
38784;DHT22;24531;45.502;12.238;2023-03-23T07:34:27;17.60;89.50
38784;DHT22;24531;45.502;12.238;2023-03-23T07:36:53;17.60;89.50
38784;DHT22;24531;45.502;12.238;2023-03-23T07:39:19;17.80;89.40
38784;DHT22;24531;45.502;12.238;2023-03-23T07:41:45;17.80;90.10
38784;DHT22;24531;45.502;12.238;2023-03-23T07:44:10;17.90;89.30
38784;DHT22;24531;45.502;12.238;2023-03-23T07:46:36;18.10;89.50
38784;DHT22;24531;45.502;12.238;2023-03-23T07:49:02;18.30;89.20
38784;DHT22;24531;45.502;12.238;2023-03-23T07:51:31;18.30;88.90
38784;DHT22;24531;45.502;12.238;2023-03-23T07:53:57;18.50;89.20
38784;DHT22;24531;45.502;12.238;2023-03-23T07:56:22;18.90;89.20
38784;DHT22;24531;45.502;12.238;2023-03-23T07:58:48;19.20;88.90
38784;DHT22;24531;45.502;12.238;2023-03-23T08:01:15;19.70;89.10
38784;DHT22;24531;45.502;12.238;2023-03-23T08:03:41;20.20;88.20
38784;DHT22;24531;45.502;12.238;2023-03-23T08:06:07;20.60;87.60
38784;DHT22;24531;45.502;12.238;2023-03-23T08:08:34;21.00;86.70
38784;DHT22;24531;45.502;12.238;2023-03-23T08:11:00;21.60;86.30
38784;DHT22;24531;45.502;12.238;2023-03-23T08:13:25;22.10;85.20
38784;DHT22;24531;45.502;12.238;2023-03-23T08:15:51;22.60;84.30
38784;DHT22;24531;45.502;12.238;2023-03-23T08:18:17;22.80;83.20
38784;DHT22;24531;45.502;12.238;2023-03-23T08:20:43;22.60;82.40
38784;DHT22;24531;45.502;12.238;2023-03-23T08:23:10;22.20;82.00
38784;DHT22;24531;45.502;12.238;2023-03-23T08:25:36;21.90;82.00
38784;DHT22;24531;45.502;12.238;2023-03-23T08:28:02;21.50;82.10
38784;DHT22;24531;45.502;12.238;2023-03-23T08:30:29;21.20;82.60
38784;DHT22;24531;45.502;12.238;2023-03-23T08:32:58;21.10;83.10
38784;DHT22;24531;45.502;12.238;2023-03-23T08:35:25;21.00;83.60
38784;DHT22;24531;45.502;12.238;2023-03-23T08:37:51;21.20;83.70
38784;DHT22;24531;45.502;12.238;2023-03-23T08:40:19;21.50;83.30
38784;DHT22;24531;45.502;12.238;2023-03-23T08:42:46;21.70;83.20
38784;DHT22;24531;45.502;12.238;2023-03-23T08:45:16;22.00;82.80
38784;DHT22;24531;45.502;12.238;2023-03-23T08:47:43;22.20;82.50
38784;DHT22;24531;45.502;12.238;2023-03-23T08:50:12;22.30;81.70
38784;DHT22;24531;45.502;12.238;2023-03-23T08:52:38;22.00;81.00
38784;DHT22;24531;45.502;12.238;2023-03-23T08:55:04;21.50;81.60
38784;DHT22;24531;45.502;12.238;2023-03-23T08:57:30;21.20;82.20
38784;DHT22;24531;45.502;12.238;2023-03-23T08:59:56;21.00;82.40
38784;DHT22;24531;45.502;12.238;2023-03-23T09:02:38;20.80;83.00
38784;DHT22;24531;45.502;12.238;2023-03-23T09:05:04;20.90;83.50
38784;DHT22;24531;45.502;12.238;2023-03-23T09:07:30;21.40;83.40
38784;DHT22;24531;45.502;12.238;2023-03-23T09:09:56;21.50;82.70
38784;DHT22;24531;45.502;12.238;2023-03-23T09:12:21;21.30;82.00
38784;DHT22;24531;45.502;12.238;2023-03-23T09:14:48;21.10;82.30
38784;DHT22;24531;45.502;12.238;2023-03-23T09:17:14;21.00;83.90
38784;DHT22;24531;45.502;12.238;2023-03-23T09:19:40;21.20;83.60
38784;DHT22;24531;45.502;12.238;2023-03-23T09:22:06;21.50;83.60
38784;DHT22;24531;45.502;12.238;2023-03-23T09:24:33;21.50;82.70
38784;DHT22;24531;45.502;12.238;2023-03-23T09:27:00;21.20;82.50
38784;DHT22;24531;45.502;12.238;2023-03-23T09:29:26;20.90;82.70
38784;DHT22;24531;45.502;12.238;2023-03-23T09:31:53;20.70;82.90
38784;DHT22;24531;45.502;12.238;2023-03-23T09:34:19;20.60;82.70
38784;DHT22;24531;45.502;12.238;2023-03-23T09:36:45;20.50;82.30
38784;DHT22;24531;45.502;12.238;2023-03-23T09:39:11;20.30;82.20
38784;DHT22;24531;45.502;12.238;2023-03-23T09:42:07;20.20;82.60
38784;DHT22;24531;45.502;12.238;2023-03-23T09:44:54;20.20;83.20
38784;DHT22;24531;45.502;12.238;2023-03-23T09:47:41;20.20;83.10
38784;DHT22;24531;45.502;12.238;2023-03-23T09:50:12;20.30;82.90
38784;DHT22;24531;45.502;12.238;2023-03-23T09:55:24;20.60;82.80
38784;DHT22;24531;45.502;12.238;2023-03-23T10:03:16;20.90;82.00
38784;DHT22;24531;45.502;12.238;2023-03-23T10:05:46;21.20;82.70
38784;DHT22;24531;45.502;12.238;2023-03-23T10:08:32;21.50;83.20
38784;DHT22;24531;45.502;12.238;2023-03-23T10:19:49;21.70;80.80
38784;DHT22;24531;45.502;12.238;2023-03-23T10:22:52;21.60;80.70
38784;DHT22;24531;45.502;12.238;2023-03-23T10:27:54;21.30;79.90
38784;DHT22;24531;45.502;12.238;2023-03-23T10:30:44;21.30;80.40
38784;DHT22;24531;45.502;12.238;2023-03-23T10:33:20;21.40;80.20
38784;DHT22;24531;45.502;12.238;2023-03-23T10:35:57;21.30;80.60
38784;DHT22;24531;45.502;12.238;2023-03-23T10:38:35;21.30;80.70
38784;DHT22;24531;45.502;12.238;2023-03-23T10:41:11;21.30;80.60
38784;DHT22;24531;45.502;12.238;2023-03-23T10:43:38;21.30;80.80
38784;DHT22;24531;45.502;12.238;2023-03-23T10:46:22;21.50;79.80
38784;DHT22;24531;45.502;12.238;2023-03-23T10:48:52;21.80;77.90
38784;DHT22;24531;45.502;12.238;2023-03-23T10:51:22;22.00;76.60
38784;DHT22;24531;45.502;12.238;2023-03-23T10:53:51;22.10;75.20
38784;DHT22;24531;45.502;12.238;2023-03-23T10:56:42;22.30;74.50
38784;DHT22;24531;45.502;12.238;2023-03-23T10:59:19;22.30;73.40
38784;DHT22;24531;45.502;12.238;2023-03-23T11:01:54;22.40;73.20
38784;DHT22;24531;45.502;12.238;2023-03-23T11:04:22;22.40;72.90
38784;DHT22;24531;45.502;12.238;2023-03-23T11:06:51;22.40;72.20
38784;DHT22;24531;45.502;12.238;2023-03-23T11:09:22;22.40;71.80
38784;DHT22;24531;45.502;12.238;2023-03-23T11:11:58;22.50;71.30
38784;DHT22;24531;45.502;12.238;2023-03-23T11:14:32;22.40;72.30
38784;DHT22;24531;45.502;12.238;2023-03-23T11:17:03;22.40;71.50
38784;DHT22;24531;45.502;12.238;2023-03-23T11:19:31;22.40;71.20
38784;DHT22;24531;45.502;12.238;2023-03-23T11:22:24;22.50;72.00
38784;DHT22;24531;45.502;12.238;2023-03-23T11:24:56;22.50;70.70
38784;DHT22;24531;45.502;12.238;2023-03-23T11:27:24;22.60;70.80
38784;DHT22;24531;45.502;12.238;2023-03-23T11:29:54;22.70;70.90
38784;DHT22;24531;45.502;12.238;2023-03-23T11:32:28;22.80;70.10
38784;DHT22;24531;45.502;12.238;2023-03-23T11:35:02;22.90;69.50
38784;DHT22;24531;45.502;12.238;2023-03-23T11:37:35;22.90;68.70
38784;DHT22;24531;45.502;12.238;2023-03-23T11:42:45;22.90;68.00
38784;DHT22;24531;45.502;12.238;2023-03-23T11:45:18;23.00;68.40
38784;DHT22;24531;45.502;12.238;2023-03-23T11:50:44;23.00;66.70
38784;DHT22;24531;45.502;12.238;2023-03-23T11:53:35;22.70;66.70
38784;DHT22;24531;45.502;12.238;2023-03-23T11:58:57;22.40;68.00
38784;DHT22;24531;45.502;12.238;2023-03-23T12:01:51;22.50;67.80
38784;DHT22;24531;45.502;12.238;2023-03-23T12:04:37;22.60;67.80
38784;DHT22;24531;45.502;12.238;2023-03-23T12:10:23;22.70;67.80
38784;DHT22;24531;45.502;12.238;2023-03-23T12:15:52;22.70;67.80
38784;DHT22;24531;45.502;12.238;2023-03-23T12:41:31;21.90;70.40
38784;DHT22;24531;45.502;12.238;2023-03-23T12:44:03;21.90;70.70
38784;DHT22;24531;45.502;12.238;2023-03-23T12:49:37;22.00;71.10
38784;DHT22;24531;45.502;12.238;2023-03-23T12:57:58;22.40;69.90
38784;DHT22;24531;45.502;12.238;2023-03-23T13:00:29;22.40;69.60
38784;DHT22;24531;45.502;12.238;2023-03-23T13:05:35;22.50;69.20
38784;DHT22;24531;45.502;12.238;2023-03-23T13:08:26;22.50;68.90
38784;DHT22;24531;45.502;12.238;2023-03-23T13:10:57;22.40;69.30
38784;DHT22;24531;45.502;12.238;2023-03-23T13:13:27;22.40;68.80
38784;DHT22;24531;45.502;12.238;2023-03-23T13:16:04;22.40;68.80
38784;DHT22;24531;45.502;12.238;2023-03-23T13:18:48;22.50;68.50
38784;DHT22;24531;45.502;12.238;2023-03-23T13:23:52;22.40;69.10
38784;DHT22;24531;45.502;12.238;2023-03-23T13:26:21;22.40;68.30
38784;DHT22;24531;45.502;12.238;2023-03-23T13:31:28;22.30;68.20
38784;DHT22;24531;45.502;12.238;2023-03-23T13:34:01;22.30;68.40
38784;DHT22;24531;45.502;12.238;2023-03-23T13:38:56;22.20;68.40
38784;DHT22;24531;45.502;12.238;2023-03-23T13:41:23;22.20;68.60
38784;DHT22;24531;45.502;12.238;2023-03-23T13:43:48;22.10;68.70
38784;DHT22;24531;45.502;12.238;2023-03-23T13:48:46;22.20;68.80
38784;DHT22;24531;45.502;12.238;2023-03-23T13:59:28;22.20;68.20
38784;DHT22;24531;45.502;12.238;2023-03-23T14:01:56;22.20;68.30
38784;DHT22;24531;45.502;12.238;2023-03-23T14:04:29;22.30;68.20
38784;DHT22;24531;45.502;12.238;2023-03-23T14:06:57;22.30;68.00
38784;DHT22;24531;45.502;12.238;2023-03-23T14:09:41;22.30;68.10
38784;DHT22;24531;45.502;12.238;2023-03-23T14:12:21;22.40;68.40
38784;DHT22;24531;45.502;12.238;2023-03-23T14:14:50;22.50;68.30
38784;DHT22;24531;45.502;12.238;2023-03-23T14:17:22;22.50;67.90
38784;DHT22;24531;45.502;12.238;2023-03-23T14:19:52;22.50;68.00
38784;DHT22;24531;45.502;12.238;2023-03-23T14:22:22;22.50;68.10
38784;DHT22;24531;45.502;12.238;2023-03-23T14:24:47;22.50;67.90
38784;DHT22;24531;45.502;12.238;2023-03-23T14:27:31;22.30;67.70
38784;DHT22;24531;45.502;12.238;2023-03-23T14:29:58;22.10;68.20
38784;DHT22;24531;45.502;12.238;2023-03-23T14:32:27;22.10;68.40
38784;DHT22;24531;45.502;12.238;2023-03-23T14:34:53;22.10;68.50
38784;DHT22;24531;45.502;12.238;2023-03-23T14:37:20;22.10;68.50
38784;DHT22;24531;45.502;12.238;2023-03-23T14:39:49;22.10;68.90
38784;DHT22;24531;45.502;12.238;2023-03-23T14:42:19;22.10;68.90
38784;DHT22;24531;45.502;12.238;2023-03-23T14:44:48;22.20;69.10
38784;DHT22;24531;45.502;12.238;2023-03-23T14:47:30;22.20;69.20
38784;DHT22;24531;45.502;12.238;2023-03-23T14:50:00;22.10;69.30
38784;DHT22;24531;45.502;12.238;2023-03-23T14:52:28;22.10;69.60
38784;DHT22;24531;45.502;12.238;2023-03-23T14:54:55;22.00;69.80
38784;DHT22;24531;45.502;12.238;2023-03-23T14:59:49;21.80;70.30
38784;DHT22;24531;45.502;12.238;2023-03-23T15:02:36;21.70;70.60
38784;DHT22;24531;45.502;12.238;2023-03-23T15:05:10;21.60;71.30
38784;DHT22;24531;45.502;12.238;2023-03-23T15:07:39;21.60;71.50
38784;DHT22;24531;45.502;12.238;2023-03-23T15:10:07;21.70;71.70
38784;DHT22;24531;45.502;12.238;2023-03-23T15:12:33;21.70;71.90
38784;DHT22;24531;45.502;12.238;2023-03-23T15:15:05;21.60;71.90
38784;DHT22;24531;45.502;12.238;2023-03-23T15:17:36;21.50;72.00
38784;DHT22;24531;45.502;12.238;2023-03-23T15:20:17;21.40;72.10
38784;DHT22;24531;45.502;12.238;2023-03-23T15:22:48;21.30;72.50
38784;DHT22;24531;45.502;12.238;2023-03-23T15:25:30;21.10;72.70
38784;DHT22;24531;45.502;12.238;2023-03-23T15:28:06;20.90;73.10
38784;DHT22;24531;45.502;12.238;2023-03-23T15:30:45;20.90;73.40
38784;DHT22;24531;45.502;12.238;2023-03-23T15:33:12;20.80;73.70
38784;DHT22;24531;45.502;12.238;2023-03-23T15:35:41;20.70;73.90
38784;DHT22;24531;45.502;12.238;2023-03-23T15:38:29;20.70;73.90
38784;DHT22;24531;45.502;12.238;2023-03-23T15:40:57;20.60;74.10
38784;DHT22;24531;45.502;12.238;2023-03-23T15:43:35;20.50;74.30
38784;DHT22;24531;45.502;12.238;2023-03-23T15:51:25;20.80;75.80
38784;DHT22;24531;45.502;12.238;2023-03-23T15:53:52;21.60;75.10
38784;DHT22;24531;45.502;12.238;2023-03-23T15:56:18;23.10;72.80
38784;DHT22;24531;45.502;12.238;2023-03-23T15:58:44;24.30;70.00
38784;DHT22;24531;45.502;12.238;2023-03-23T16:01:29;25.40;67.90
38784;DHT22;24531;45.502;12.238;2023-03-23T16:04:03;26.10;66.30
38784;DHT22;24531;45.502;12.238;2023-03-23T16:06:31;26.50;65.00
38784;DHT22;24531;45.502;12.238;2023-03-23T16:08:57;26.90;64.30
38784;DHT22;24531;45.502;12.238;2023-03-23T16:11:26;26.40;63.40
38784;DHT22;24531;45.502;12.238;2023-03-23T16:13:51;25.20;64.90
38784;DHT22;24531;45.502;12.238;2023-03-23T16:16:21;24.40;67.30
38784;DHT22;24531;45.502;12.238;2023-03-23T16:18:47;24.20;68.30
38784;DHT22;24531;45.502;12.238;2023-03-23T16:21:13;24.00;68.40
38784;DHT22;24531;45.502;12.238;2023-03-23T16:23:39;23.40;69.20
38784;DHT22;24531;45.502;12.238;2023-03-23T16:26:05;22.70;70.60
38784;DHT22;24531;45.502;12.238;2023-03-23T16:28:31;22.20;71.90
38784;DHT22;24531;45.502;12.238;2023-03-23T16:30:57;21.70;73.80
38784;DHT22;24531;45.502;12.238;2023-03-23T16:33:22;21.30;74.10
38784;DHT22;24531;45.502;12.238;2023-03-23T16:35:48;21.10;74.90
38784;DHT22;24531;45.502;12.238;2023-03-23T16:38:15;20.90;75.40
38784;DHT22;24531;45.502;12.238;2023-03-23T16:40:42;20.60;75.60
38784;DHT22;24531;45.502;12.238;2023-03-23T16:43:08;20.40;76.20
38784;DHT22;24531;45.502;12.238;2023-03-23T16:45:36;20.20;76.70
38784;DHT22;24531;45.502;12.238;2023-03-23T16:48:02;20.10;77.20
38784;DHT22;24531;45.502;12.238;2023-03-23T16:50:29;20.00;77.30
38784;DHT22;24531;45.502;12.238;2023-03-23T16:52:55;19.90;77.50
38784;DHT22;24531;45.502;12.238;2023-03-23T16:55:21;19.80;77.80
38784;DHT22;24531;45.502;12.238;2023-03-23T16:57:46;19.70;78.00
38784;DHT22;24531;45.502;12.238;2023-03-23T17:00:15;19.60;78.30
38784;DHT22;24531;45.502;12.238;2023-03-23T17:02:45;19.40;78.60
38784;DHT22;24531;45.502;12.238;2023-03-23T17:05:11;19.30;78.90
38784;DHT22;24531;45.502;12.238;2023-03-23T17:07:38;19.30;79.30
38784;DHT22;24531;45.502;12.238;2023-03-23T17:10:05;19.20;79.80
38784;DHT22;24531;45.502;12.238;2023-03-23T17:12:31;19.10;80.00
38784;DHT22;24531;45.502;12.238;2023-03-23T17:14:57;19.00;80.40
38784;DHT22;24531;45.502;12.238;2023-03-23T17:17:23;18.90;80.80
38784;DHT22;24531;45.502;12.238;2023-03-23T17:19:49;18.90;81.20
38784;DHT22;24531;45.502;12.238;2023-03-23T17:22:15;18.90;81.50
38784;DHT22;24531;45.502;12.238;2023-03-23T17:24:40;18.90;81.80
38784;DHT22;24531;45.502;12.238;2023-03-23T17:27:06;18.80;82.20
38784;DHT22;24531;45.502;12.238;2023-03-23T17:29:32;18.80;82.50
38784;DHT22;24531;45.502;12.238;2023-03-23T17:31:58;18.80;82.60